Time;durP1;ratioP1;P1;durP2;ratioP2;P2;SDS_P1;SDS_P2;PMS_P1;PMS_P2;Temp;Humidity;BMP_temperature;BMP_pressure;BME280_temperature;BME280_humidity;BME280_pressure;Samples;Min_cycle;Max_cycle;Signal;HPM_P1;HPM_P2
2022/07/17 00:01:05;;;;;;;3.08;0.70;;;13.40;99.90;;;;;;5093379;28;20379;-66
2022/07/17 00:03:31;;;;;;;3.88;0.90;;;13.40;99.90;;;;;;5093561;28;20131;-66
2022/07/17 00:05:56;;;;;;;2.17;0.90;;;13.40;99.90;;;;;;5075776;28;20108;-67
2022/07/17 00:08:22;;;;;;;2.22;0.73;;;13.40;99.90;;;;;;5093822;28;20104;-66
2022/07/17 00:10:48;;;;;;;3.22;1.20;;;13.30;99.90;;;;;;5093181;28;20048;-66
2022/07/17 00:13:14;;;;;;;5.15;0.90;;;13.30;99.90;;;;;;5092979;28;20044;-66
2022/07/17 00:15:39;;;;;;;3.85;0.80;;;13.30;99.90;;;;;;5093311;28;20079;-66
2022/07/17 00:18:07;;;;;;;1.38;0.70;;;13.20;99.90;;;;;;5093311;28;20119;-66
2022/07/17 00:20:33;;;;;;;2.20;0.80;;;13.20;99.90;;;;;;5093155;28;20037;-66
2022/07/17 00:22:59;;;;;;;3.08;0.70;;;13.20;99.90;;;;;;5093050;28;20383;-66
2022/07/17 00:25:25;;;;;;;3.08;0.98;;;13.20;99.90;;;;;;5093353;28;20043;-66
2022/07/17 00:27:51;;;;;;;3.10;0.98;;;13.10;99.90;;;;;;5092505;28;20429;-66
2022/07/17 00:30:17;;;;;;;3.05;0.80;;;13.10;99.90;;;;;;5093298;28;20533;-66
2022/07/17 00:32:44;;;;;;;2.25;0.75;;;13.10;99.90;;;;;;5093920;28;20356;-66
2022/07/17 00:35:10;;;;;;;2.38;0.80;;;13.00;99.90;;;;;;5097018;28;20040;-66
2022/07/17 00:37:41;;;;;;;3.42;0.90;;;13.00;99.90;;;;;;5097308;28;20051;-66
2022/07/17 00:40:08;;;;;;;4.38;1.02;;;13.00;99.90;;;;;;5096944;28;20043;-65
2022/07/17 00:42:34;;;;;;;3.42;0.93;;;13.00;99.90;;;;;;5096511;28;20471;-66
2022/07/17 00:45:00;;;;;;;2.17;0.93;;;12.90;99.90;;;;;;5096920;28;20093;-65
2022/07/17 00:47:26;;;;;;;3.30;0.93;;;12.90;99.90;;;;;;5096777;28;20093;-66
2022/07/17 00:49:51;;;;;;;2.17;0.95;;;12.90;99.90;;;;;;5096605;28;20036;-66
2022/07/17 00:52:17;;;;;;;4.18;0.98;;;12.80;99.90;;;;;;5095634;28;20463;-66
2022/07/17 00:54:45;;;;;;;3.38;1.10;;;12.80;99.90;;;;;;5096512;28;20480;-66
2022/07/17 00:57:14;;;;;;;4.00;1.05;;;12.80;99.90;;;;;;5095264;28;20044;-66
2022/07/17 00:59:41;;;;;;;3.40;0.90;;;12.80;99.90;;;;;;5095647;28;20055;-66
2022/07/17 01:02:12;;;;;;;2.17;0.90;;;12.70;99.90;;;;;;5096382;28;20039;-66
2022/07/17 01:04:38;;;;;;;1.55;1.00;;;12.70;99.90;;;;;;5096390;28;20134;-66
2022/07/17 01:07:06;;;;;;;1.70;1.10;;;12.70;99.90;;;;;;5096482;28;20047;-66
2022/07/17 01:09:32;;;;;;;3.67;1.27;;;12.60;99.90;;;;;;5096413;28;20044;-66
2022/07/17 01:11:59;;;;;;;5.68;1.10;;;12.60;99.90;;;;;;5095769;28;20496;-65
2022/07/17 01:14:26;;;;;;;1.55;0.90;;;12.60;99.90;;;;;;5096334;28;20498;-66
2022/07/17 01:16:53;;;;;;;3.42;1.20;;;12.50;99.90;;;;;;5096198;28;20472;-66
2022/07/17 01:19:20;;;;;;;4.80;1.10;;;12.50;99.90;;;;;;5096344;28;20044;-66
2022/07/17 01:21:48;;;;;;;2.60;1.00;;;12.40;99.90;;;;;;5096220;28;20089;-66
2022/07/17 01:24:14;;;;;;;2.58;0.93;;;12.40;99.90;;;;;;5096406;28;20123;-66
2022/07/17 01:26:49;;;;;;;2.17;1.13;;;12.40;99.90;;;;;;5095051;28;20559;-66
2022/07/17 01:29:16;;;;;;;2.60;1.52;;;12.30;99.90;;;;;;5095249;28;20051;-66
2022/07/17 01:31:43;;;;;;;2.10;1.23;;;12.30;99.90;;;;;;5095780;28;20068;-65
2022/07/17 01:34:10;;;;;;;1.48;1.00;;;12.30;99.90;;;;;;5095780;28;20545;-66
2022/07/17 01:36:36;;;;;;;2.92;1.02;;;12.30;99.90;;;;;;5095133;28;20044;-66
2022/07/17 01:39:03;;;;;;;2.90;1.58;;;12.20;99.90;;;;;;5094793;28;20047;-66
2022/07/17 01:41:28;;;;;;;4.78;1.20;;;12.20;99.90;;;;;;5095268;28;20036;-66
2022/07/17 01:43:55;;;;;;;6.50;1.50;;;12.20;99.90;;;;;;5095434;28;20143;-66
2022/07/17 01:46:20;;;;;;;3.55;1.30;;;12.20;99.90;;;;;;5095417;28;20050;-66
2022/07/17 01:48:46;;;;;;;3.10;1.58;;;12.10;99.90;;;;;;5095684;28;20044;-66
2022/07/17 01:51:12;;;;;;;5.10;1.73;;;12.10;99.90;;;;;;5095601;28;20128;-66
2022/07/17 01:53:38;;;;;;;5.45;1.60;;;12.10;99.90;;;;;;5094343;28;20039;-66
2022/07/17 01:56:04;;;;;;;6.45;1.77;;;12.10;99.90;;;;;;5095659;28;20089;-66
2022/07/17 01:58:29;;;;;;;2.83;1.58;;;12.10;99.90;;;;;;5094071;28;20131;-66
2022/07/17 02:00:55;;;;;;;6.40;2.10;;;12.00;99.90;;;;;;5095044;28;20130;-66
2022/07/17 02:03:21;;;;;;;3.60;1.60;;;12.00;99.90;;;;;;5095462;28;20044;-66
2022/07/17 02:05:48;;;;;;;4.20;1.73;;;12.00;99.90;;;;;;5095451;28;20036;-65
2022/07/17 02:08:13;;;;;;;3.50;1.85;;;12.00;99.90;;;;;;5095248;28;20047;-66
2022/07/17 02:10:39;;;;;;;3.28;1.95;;;12.00;99.90;;;;;;5094080;28;20048;-67
2022/07/17 02:13:05;;;;;;;4.97;1.77;;;12.00;99.90;;;;;;5093651;28;20051;-66
2022/07/17 02:15:30;;;;;;;5.80;1.70;;;12.20;99.90;;;;;;5094956;28;20093;-66
2022/07/17 02:17:56;;;;;;;3.25;1.60;;;12.00;99.90;;;;;;5095211;28;20044;-66
2022/07/17 02:20:22;;;;;;;4.05;1.50;;;11.90;99.90;;;;;;5095039;28;20463;-66
2022/07/17 02:22:48;;;;;;;2.65;1.40;;;11.90;99.90;;;;;;5094959;28;20050;-66
2022/07/17 02:25:14;;;;;;;3.22;1.45;;;11.90;99.90;;;;;;5093966;28;20048;-66
2022/07/17 02:27:41;;;;;;;3.80;1.50;;;11.90;99.90;;;;;;5093829;28;20490;-65
2022/07/17 02:30:13;;;;;;;5.47;1.50;;;12.00;99.90;;;;;;5094664;28;20035;-65
2022/07/17 02:32:39;;;;;;;3.38;1.50;;;11.90;99.90;;;;;;5095013;28;20075;-65
2022/07/17 02:35:06;;;;;;;4.72;1.42;;;11.90;99.90;;;;;;5094875;28;20127;-66
2022/07/17 02:37:32;;;;;;;4.25;1.50;;;11.90;99.90;;;;;;5077034;28;20040;-66
2022/07/17 02:39:58;;;;;;;4.00;1.42;;;11.90;99.90;;;;;;5094569;28;20555;-66
2022/07/17 02:42:27;;;;;;;3.95;1.60;;;11.90;99.90;;;;;;5076326;28;20039;-65
2022/07/17 02:44:54;;;;;;;3.90;1.55;;;11.80;99.90;;;;;;5094889;28;20396;-66
2022/07/17 02:47:23;;;;;;;3.28;1.50;;;12.00;99.90;;;;;;5093694;28;20082;-66
2022/07/17 02:49:50;;;;;;;3.97;1.58;;;11.90;99.90;;;;;;5094498;28;20048;-66
2022/07/17 02:52:16;;;;;;;3.22;1.38;;;11.80;99.90;;;;;;5094457;28;20105;-66
2022/07/17 02:54:42;;;;;;;2.78;1.55;;;11.90;99.90;;;;;;5094550;28;20414;-66
2022/07/17 02:57:07;;;;;;;3.72;1.40;;;11.80;99.90;;;;;;5092393;28;20051;-66
2022/07/17 02:59:33;;;;;;;6.95;1.77;;;11.80;99.90;;;;;;5094407;28;20048;-66
2022/07/17 03:01:59;;;;;;;3.15;1.38;;;11.70;99.90;;;;;;5094536;28;20044;-66
2022/07/17 03:04:24;;;;;;;5.70;1.60;;;11.80;99.90;;;;;;5094383;28;20381;-66
2022/07/17 03:06:50;;;;;;;2.47;1.50;;;11.80;99.90;;;;;;5094243;28;20044;-65
2022/07/17 03:09:15;;;;;;;2.72;1.50;;;11.70;99.90;;;;;;5094163;28;20043;-65
2022/07/17 03:11:41;;;;;;;2.60;1.33;;;11.70;99.90;;;;;;5075780;28;20043;-67
2022/07/17 03:14:07;;;;;;;4.38;1.70;;;11.60;99.90;;;;;;5094237;28;20036;-66
2022/07/17 03:16:32;;;;;;;3.70;1.60;;;11.60;99.90;;;;;;5094036;28;20162;-66
2022/07/17 03:18:58;;;;;;;2.97;1.52;;;11.70;99.90;;;;;;5076210;28;20097;-66
2022/07/17 03:21:24;;;;;;;5.90;1.98;;;11.90;99.90;;;;;;5094003;28;20533;-66
2022/07/17 03:23:49;;;;;;;2.75;1.60;;;11.60;99.90;;;;;;5093838;28;20044;-66
2022/07/17 03:26:15;;;;;;;3.15;1.33;;;11.60;99.90;;;;;;5093847;28;20127;-66
2022/07/17 03:28:41;;;;;;;2.63;1.40;;;11.60;99.90;;;;;;5094250;28;20036;-66
2022/07/17 03:31:06;;;;;;;2.88;1.40;;;11.70;99.90;;;;;;5093918;28;20071;-66
2022/07/17 03:33:32;;;;;;;4.75;1.70;;;11.60;99.90;;;;;;5092720;28;20085;-66
2022/07/17 03:35:58;;;;;;;3.15;1.42;;;11.70;99.90;;;;;;5093681;28;20052;-66
2022/07/17 03:38:24;;;;;;;7.03;1.85;;;11.60;99.90;;;;;;5093708;28;20146;-66
2022/07/17 03:40:49;;;;;;;3.72;1.42;;;11.70;99.90;;;;;;5092260;28;20036;-66
2022/07/17 03:43:15;;;;;;;2.65;1.45;;;11.60;99.90;;;;;;5092345;28;20044;-66
2022/07/17 03:45:42;;;;;;;3.25;1.60;;;11.60;99.90;;;;;;5093620;28;20510;-66
2022/07/17 03:48:08;;;;;;;3.53;1.58;;;11.70;99.90;;;;;;5093609;28;20445;-66
2022/07/17 03:50:34;;;;;;;3.97;1.15;;;11.70;99.90;;;;;;5093560;28;20096;-66
2022/07/17 03:53:00;;;;;;;6.10;1.52;;;11.70;99.90;;;;;;5093403;28;20043;-66
2022/07/17 03:55:25;;;;;;;3.70;1.40;;;12.00;99.90;;;;;;5092347;28;20043;-66
2022/07/17 03:57:51;;;;;;;3.90;1.42;;;11.70;99.90;;;;;;5075461;28;20059;-66
2022/07/17 04:00:17;;;;;;;3.72;1.60;;;11.70;99.90;;;;;;5093671;28;20055;-65
2022/07/17 04:02:43;;;;;;;4.20;1.40;;;11.70;99.90;;;;;;5092534;28;20083;-66
2022/07/17 04:05:10;;;;;;;3.05;1.50;;;11.90;99.90;;;;;;5075677;28;20079;-66
2022/07/17 04:07:40;;;;;;;3.28;1.50;;;11.80;99.90;;;;;;5092605;28;20543;-66
2022/07/17 04:10:07;;;;;;;6.80;1.50;;;11.90;99.90;;;;;;5097410;28;20055;-66
2022/07/17 04:12:33;;;;;;;3.30;1.40;;;11.90;99.90;;;;;;5097205;28;20093;-66
2022/07/17 04:14:59;;;;;;;4.05;1.20;;;11.90;99.90;;;;;;5097636;28;20044;-66
2022/07/17 04:17:25;;;;;;;2.88;1.40;;;11.90;99.90;;;;;;5097453;28;20079;-66
2022/07/17 04:19:51;;;;;;;2.88;1.52;;;12.10;99.90;;;;;;5097405;28;20044;-66
2022/07/17 04:22:17;;;;;;;3.65;1.40;;;12.00;99.90;;;;;;5096052;28;20515;-65
2022/07/17 04:24:43;;;;;;;2.42;1.33;;;12.00;99.90;;;;;;5097063;28;20125;-65
2022/07/17 04:27:09;;;;;;;2.92;1.65;;;12.10;99.90;;;;;;5097368;28;20048;-66
2022/07/17 04:29:35;;;;;;;3.03;1.50;;;12.20;99.90;;;;;;5097405;28;20192;-67
2022/07/17 04:32:02;;;;;;;3.80;1.90;;;12.20;99.90;;;;;;5096023;28;20099;-67
2022/07/17 04:34:28;;;;;;;4.95;1.80;;;12.10;99.90;;;;;;5097258;28;20083;-67
2022/07/17 04:36:54;;;;;;;5.75;1.67;;;12.20;99.90;;;;;;5096981;28;20078;-66
2022/07/17 04:39:19;;;;;;;3.13;1.50;;;12.20;99.90;;;;;;5096844;28;20480;-67
2022/07/17 04:41:45;;;;;;;3.55;1.48;;;12.20;99.90;;;;;;5096357;28;20036;-67
2022/07/17 04:44:11;;;;;;;4.47;1.50;;;12.30;99.90;;;;;;5096975;28;20048;-67
2022/07/17 04:46:36;;;;;;;3.83;1.50;;;12.30;99.90;;;;;;5096709;28;20089;-66
2022/07/17 04:49:02;;;;;;;3.95;1.58;;;12.40;99.90;;;;;;5096928;28;20046;-66
2022/07/17 04:51:28;;;;;;;3.08;1.35;;;12.30;99.90;;;;;;5096843;28;20400;-66
2022/07/17 04:53:53;;;;;;;2.05;1.20;;;12.30;99.90;;;;;;5096617;28;20122;-66
2022/07/17 04:56:20;;;;;;;3.35;1.33;;;12.50;99.90;;;;;;5095591;28;20055;-66
2022/07/17 04:58:45;;;;;;;6.78;1.52;;;12.40;99.90;;;;;;5096952;28;20059;-66
2022/07/17 05:01:11;;;;;;;5.30;1.50;;;12.40;99.90;;;;;;5096552;28;20040;-66
2022/07/17 05:03:37;;;;;;;3.72;1.40;;;12.50;99.90;;;;;;5095717;28;20502;-66
2022/07/17 05:06:04;;;;;;;2.80;1.50;;;12.40;99.90;;;;;;5078341;28;20496;-66
2022/07/17 05:08:30;;;;;;;2.80;1.65;;;12.40;99.90;;;;;;5096367;28;20127;-65
2022/07/17 05:10:55;;;;;;;3.97;1.23;;;12.50;99.90;;;;;;5096523;28;20123;-66
2022/07/17 05:13:21;;;;;;;4.00;1.30;;;12.50;99.90;;;;;;5096202;28;20460;-66
2022/07/17 05:15:49;;;;;;;2.45;1.10;;;12.50;99.90;;;;;;5095259;28;20050;-66
2022/07/17 05:18:15;;;;;;;6.07;1.67;;;12.50;99.90;;;;;;5095752;28;20387;-66
2022/07/17 05:20:41;;;;;;;6.22;1.58;;;12.50;99.90;;;;;;5094958;28;20036;-65
2022/07/17 05:23:06;;;;;;;2.40;1.30;;;12.50;99.90;;;;;;5095927;28;20079;-65
2022/07/17 05:25:35;;;;;;;3.83;1.50;;;12.60;99.90;;;;;;5095489;28;20044;-65
2022/07/17 05:28:02;;;;;;;4.82;1.23;;;12.70;99.90;;;;;;5096401;28;20044;-65
2022/07/17 05:30:27;;;;;;;3.55;1.50;;;12.70;99.90;;;;;;5096231;28;20118;-65
2022/07/17 05:32:53;;;;;;;3.72;1.30;;;12.60;99.90;;;;;;5095983;28;20128;-66
2022/07/17 05:35:19;;;;;;;5.32;1.30;;;12.70;99.90;;;;;;5095827;28;20042;-66
2022/07/17 05:37:45;;;;;;;3.60;1.30;;;12.70;99.90;;;;;;5095787;28;20036;-65
2022/07/17 05:40:14;;;;;;;2.72;1.10;;;12.80;99.90;;;;;;5095927;28;20054;-65
2022/07/17 05:42:43;;;;;;;3.78;1.23;;;12.80;99.90;;;;;;5095561;28;20502;-66
2022/07/17 05:45:08;;;;;;;3.50;1.00;;;12.80;99.90;;;;;;5095808;28;20040;-66
2022/07/17 05:47:34;;;;;;;5.43;2.50;;;12.90;99.90;;;;;;5095674;28;20046;-65
2022/07/17 05:50:00;;;;;;;2.85;0.93;;;13.00;99.90;;;;;;5095586;28;20061;-65
2022/07/17 05:52:25;;;;;;;3.25;1.25;;;13.00;99.90;;;;;;5094208;28;20126;-66
2022/07/17 05:54:51;;;;;;;3.25;1.20;;;13.10;99.90;;;;;;5095922;28;20051;-66
2022/07/17 05:57:17;;;;;;;5.18;1.15;;;13.10;99.90;;;;;;5095386;28;20043;-66
2022/07/17 05:59:42;;;;;;;4.55;1.23;;;13.20;99.90;;;;;;5094261;28;20048;-66
2022/07/17 06:02:08;;;;;;;3.95;1.15;;;13.30;99.90;;;;;;5095603;28;20043;-66
2022/07/17 06:04:34;;;;;;;5.07;1.23;;;13.30;99.90;;;;;;5095262;28;20478;-66
2022/07/17 06:06:59;;;;;;;6.38;1.35;;;13.40;99.90;;;;;;5095097;28;20044;-66
2022/07/17 06:09:25;;;;;;;4.55;1.30;;;13.60;99.90;;;;;;5094382;28;20051;-65
2022/07/17 06:11:51;;;;;;;2.80;1.10;;;13.40;99.90;;;;;;5094925;28;20123;-66
2022/07/17 06:14:17;;;;;;;2.00;1.15;;;13.50;99.90;;;;;;5095322;28;20047;-66
2022/07/17 06:16:43;;;;;;;3.08;1.00;;;13.60;99.90;;;;;;5095165;28;20044;-66
2022/07/17 06:19:08;;;;;;;2.38;0.93;;;13.70;99.90;;;;;;5095177;28;20040;-66
2022/07/17 06:21:34;;;;;;;4.28;0.90;;;13.80;99.90;;;;;;5093701;28;20134;-65
2022/07/17 06:23:59;;;;;;;2.95;1.00;;;13.80;99.90;;;;;;5095099;28;20043;-66
2022/07/17 06:26:25;;;;;;;2.30;0.93;;;13.80;99.90;;;;;;5095062;28;20098;-66
2022/07/17 06:28:51;;;;;;;1.83;1.00;;;14.00;99.90;;;;;;5093897;28;20132;-66
2022/07/17 06:31:17;;;;;;;2.65;1.08;;;14.00;99.90;;;;;;5076242;28;20064;-66
2022/07/17 06:33:43;;;;;;;4.93;0.90;;;14.10;99.90;;;;;;5094816;28;20087;-66
2022/07/17 06:36:09;;;;;;;2.80;0.90;;;14.10;99.90;;;;;;5093693;28;20098;-66
2022/07/17 06:38:35;;;;;;;3.22;0.80;;;14.20;99.90;;;;;;5095336;28;20043;-66
2022/07/17 06:41:02;;;;;;;5.75;1.20;;;14.20;99.90;;;;;;5093525;28;20043;-66
2022/07/17 06:43:28;;;;;;;3.28;0.88;;;14.30;99.90;;;;;;5094401;28;20136;-66
2022/07/17 06:45:54;;;;;;;4.25;0.82;;;14.30;99.90;;;;;;5094523;28;20498;-66
2022/07/17 06:48:23;;;;;;;1.77;0.90;;;14.40;99.90;;;;;;5094599;28;20054;-66
2022/07/17 06:50:49;;;;;;;6.32;1.25;;;14.50;99.90;;;;;;5094264;28;20036;-67
2022/07/17 06:53:14;;;;;;;3.42;0.80;;;14.60;99.90;;;;;;5094529;28;20070;-67
2022/07/17 06:55:40;;;;;;;4.15;0.90;;;14.70;99.90;;;;;;5094477;28;20031;-67
2022/07/17 06:58:06;;;;;;;2.35;0.70;;;14.80;99.90;;;;;;5094108;28;20047;-66
2022/07/17 07:00:32;;;;;;;2.60;0.70;;;14.80;99.90;;;;;;5094084;28;20052;-68
2022/07/17 07:02:58;;;;;;;4.53;0.80;;;14.90;99.90;;;;;;5085719;28;20098;-68
2022/07/17 07:05:23;;;;;;;2.45;0.80;;;15.00;99.90;;;;;;5073548;28;20132;-68
2022/07/17 07:07:49;;;;;;;3.92;0.80;;;15.00;99.90;;;;;;5073921;28;20409;-67
2022/07/17 07:10:15;;;;;;;2.25;0.70;;;15.00;99.90;;;;;;5073940;28;20079;-66
2022/07/17 07:12:41;;;;;;;2.50;0.80;;;15.10;99.90;;;;;;5072069;28;20044;-67
2022/07/17 07:15:07;;;;;;;2.25;0.63;;;15.10;99.90;;;;;;5073707;28;20102;-67
2022/07/17 07:17:36;;;;;;;3.67;0.82;;;15.20;99.90;;;;;;5073523;28;20041;-67
2022/07/17 07:20:04;;;;;;;6.47;0.70;;;15.20;99.90;;;;;;5072369;28;20044;-68
2022/07/17 07:22:30;;;;;;;1.98;0.50;;;15.20;99.90;;;;;;5055615;28;20109;-68
2022/07/17 07:24:56;;;;;;;2.90;0.52;;;15.30;99.90;;;;;;5073603;28;20094;-67
2022/07/17 07:27:22;;;;;;;3.33;0.82;;;15.30;99.90;;;;;;5073566;28;20433;-67
2022/07/17 07:29:48;;;;;;;2.97;0.60;;;15.40;99.90;;;;;;5073495;28;20071;-67
2022/07/17 07:32:13;;;;;;;4.25;0.60;;;15.40;99.90;;;;;;5055734;28;20056;-67
2022/07/17 07:34:39;;;;;;;3.75;0.80;;;15.50;99.90;;;;;;5072342;28;20476;-68
2022/07/17 07:37:05;;;;;;;6.55;0.93;;;15.60;99.90;;;;;;5073528;28;20113;-67
2022/07/17 07:39:31;;;;;;;2.63;0.60;;;15.60;99.90;;;;;;5072380;28;20036;-68
2022/07/17 07:41:56;;;;;;;4.65;0.60;;;15.70;99.90;;;;;;5072084;28;20051;-67
2022/07/17 07:44:22;;;;;;;5.28;0.98;;;15.80;99.90;;;;;;5073494;28;20055;-67
2022/07/17 07:46:48;;;;;;;2.22;0.70;;;15.80;99.90;;;;;;5073368;28;20094;-68
2022/07/17 07:49:15;;;;;;;3.17;0.77;;;15.90;99.90;;;;;;5089064;28;20045;-68
2022/07/17 07:51:41;;;;;;;2.90;0.70;;;15.90;99.90;;;;;;5073512;28;20117;-68
2022/07/17 07:54:07;;;;;;;3.05;0.60;;;16.00;99.90;;;;;;5073538;28;20458;-67
2022/07/17 07:56:33;;;;;;;3.25;0.60;;;16.00;99.90;;;;;;5073384;28;20083;-67
2022/07/17 07:58:59;;;;;;;3.75;0.60;;;16.10;99.90;;;;;;5073184;28;20496;-67
2022/07/17 08:01:25;;;;;;;3.15;0.80;;;16.20;99.90;;;;;;5071928;28;20052;-68
2022/07/17 08:03:50;;;;;;;2.58;0.50;;;16.20;99.90;;;;;;5073070;28;20052;-67
2022/07/17 08:06:16;;;;;;;3.30;0.73;;;16.20;99.90;;;;;;5073808;28;20048;-67
2022/07/17 08:08:42;;;;;;;2.80;0.63;;;16.30;99.90;;;;;;5073868;28;20480;-67
2022/07/17 08:11:07;;;;;;;3.67;0.63;;;16.30;99.90;;;;;;5073412;28;20131;-67
2022/07/17 08:13:33;;;;;;;2.55;0.75;;;16.30;99.90;;;;;;5071749;28;20141;-67
2022/07/17 08:15:58;;;;;;;2.85;0.60;;;16.40;99.90;;;;;;5072142;28;20060;-67
2022/07/17 08:18:26;;;;;;;3.92;0.60;;;16.40;99.90;;;;;;5055462;28;20177;-67
2022/07/17 08:20:53;;;;;;;5.32;2.25;;;16.40;99.90;;;;;;5072126;28;20048;-67
2022/07/17 08:23:19;;;;;;;6.38;0.65;;;16.40;99.90;;;;;;5072105;28;20408;-68
2022/07/17 08:25:46;;;;;;;2.88;0.90;;;16.40;99.90;;;;;;5072097;28;20048;-67
2022/07/17 08:28:12;;;;;;;5.80;0.90;;;16.40;99.90;;;;;;5073037;28;20055;-67
2022/07/17 08:30:38;;;;;;;1.75;0.68;;;16.40;99.90;;;;;;5072971;28;20044;-67
2022/07/17 08:33:08;;;;;;;2.45;0.70;;;16.50;99.90;;;;;;5071562;28;20091;-67
2022/07/17 08:35:35;;;;;;;4.47;0.90;;;16.50;99.90;;;;;;5073291;28;20044;-66
2022/07/17 08:38:02;;;;;;;3.10;0.70;;;16.60;99.90;;;;;;5072987;28;20106;-66
2022/07/17 08:40:31;;;;;;;0.93;0.50;;;16.60;99.90;;;;;;5071721;28;20060;-66
2022/07/17 08:42:58;;;;;;;2.50;0.75;;;16.60;99.90;;;;;;5071121;28;20552;-66
2022/07/17 08:45:24;;;;;;;1.52;0.50;;;16.70;99.90;;;;;;5071734;28;20048;-67
2022/07/17 08:47:51;;;;;;;2.95;0.50;;;16.70;99.90;;;;;;5072760;28;20485;-67
2022/07/17 08:50:21;;;;;;;2.83;0.73;;;16.70;99.90;;;;;;5072968;28;20041;-67
2022/07/17 08:52:47;;;;;;;2.80;0.60;;;16.80;99.90;;;;;;5073210;28;20056;-67
2022/07/17 08:55:14;;;;;;;6.95;0.90;;;16.80;99.90;;;;;;5074360;28;20049;-68
2022/07/17 08:57:43;;;;;;;2.08;0.57;;;16.90;99.90;;;;;;5074730;28;20060;-68
2022/07/17 09:00:10;;;;;;;3.05;0.63;;;16.90;99.90;;;;;;5071882;28;20080;-68
2022/07/17 09:02:37;;;;;;;3.95;0.80;;;17.00;99.90;;;;;;5076014;28;20045;-67
2022/07/17 09:05:04;;;;;;;4.63;0.65;;;17.10;99.90;;;;;;5074793;28;20056;-68
2022/07/17 09:07:31;;;;;;;2.42;0.60;;;17.10;99.90;;;;;;5073300;28;20036;-68
2022/07/17 09:09:58;;;;;;;1.92;0.60;;;17.20;99.90;;;;;;5075950;28;20039;-67
2022/07/17 09:12:28;;;;;;;5.18;0.50;;;17.20;99.90;;;;;;5074117;28;20059;-68
2022/07/17 09:14:54;;;;;;;4.25;0.60;;;17.30;99.90;;;;;;5081301;28;20041;-68
2022/07/17 09:17:20;;;;;;;3.75;0.75;;;17.30;99.90;;;;;;5074538;28;20476;-67
2022/07/17 09:19:46;;;;;;;4.82;1.40;;;17.40;99.90;;;;;;5075580;28;20101;-67
2022/07/17 09:22:20;;;;;;;3.00;0.70;;;17.50;99.90;;;;;;5075495;28;20047;-68
2022/07/17 09:24:55;;;;;;;6.25;0.70;;;17.60;99.90;;;;;;5076018;28;20090;-67
2022/07/17 09:27:24;;;;;;;2.00;0.60;;;17.70;99.90;;;;;;5057424;28;20052;-68
2022/07/17 09:30:06;;;;;;;3.50;1.10;;;17.70;99.90;;;;;;5075669;28;20392;-69
2022/07/17 09:32:35;;;;;;;1.33;0.57;;;17.80;99.90;;;;;;5073979;28;20040;-67
2022/07/17 09:35:02;;;;;;;3.08;0.60;;;17.90;99.90;;;;;;5074176;28;20048;-67
2022/07/17 09:37:29;;;;;;;1.13;0.60;;;17.90;99.90;;;;;;5057510;28;20195;-68
2022/07/17 09:39:56;;;;;;;2.05;0.50;;;18.00;99.90;;;;;;5075128;28;20090;-68
2022/07/17 09:42:32;;;;;;;2.85;0.63;;;18.00;99.90;;;;;;5074713;28;20446;-67
2022/07/17 09:45:08;;;;;;;3.08;0.80;;;18.00;99.90;;;;;;5075359;28;20044;-68
2022/07/17 09:47:35;;;;;;;3.20;0.70;;;18.00;99.90;;;;;;5073828;28;20055;-68
2022/07/17 09:50:03;;;;;;;2.55;0.70;;;18.10;99.90;;;;;;5074184;28;20036;-69
2022/07/17 09:52:32;;;;;;;5.05;1.05;;;18.10;99.90;;;;;;5075089;28;20044;-68
2022/07/17 09:55:00;;;;;;;3.17;0.60;;;18.10;99.90;;;;;;5062863;28;20052;-69
2022/07/17 09:57:28;;;;;;;3.25;0.70;;;17.70;99.90;;;;;;5068227;28;20064;-69
2022/07/17 09:59:57;;;;;;;2.72;0.60;;;18.10;99.90;;;;;;5070178;28;20059;-71
2022/07/17 10:02:24;;;;;;;1.60;0.90;;;18.20;99.90;;;;;;5067792;28;20041;-73
2022/07/17 10:04:51;;;;;;;3.00;0.77;;;18.30;99.90;;;;;;5066608;28;20052;-69
2022/07/17 10:07:17;;;;;;;3.28;0.55;;;18.40;99.90;;;;;;5067627;28;20090;-71
2022/07/17 10:09:43;;;;;;;1.90;0.60;;;18.40;99.90;;;;;;5067230;28;20521;-69
2022/07/17 10:12:10;;;;;;;3.28;0.60;;;18.40;99.90;;;;;;5068125;28;20047;-69
2022/07/17 10:14:38;;;;;;;3.75;0.70;;;18.50;99.90;;;;;;5066014;28;20302;-69
2022/07/17 10:17:09;;;;;;;5.90;1.40;;;18.50;99.90;;;;;;5067537;28;20225;-71
2022/07/17 10:19:48;;;;;;;4.05;0.70;;;18.60;99.90;;;;;;5069045;28;20475;-70
2022/07/17 10:22:14;;;;;;;3.63;0.80;;;18.60;99.90;;;;;;5066376;28;20045;-69
2022/07/17 10:24:57;;;;;;;4.15;0.70;;;18.70;99.90;;;;;;5064768;28;20055;-69
2022/07/17 10:27:28;;;;;;;1.48;0.93;;;18.70;99.90;;;;;;5068581;28;20511;-72
2022/07/17 10:30:03;;;;;;;4.63;1.05;;;18.70;99.90;;;;;;5066948;28;20060;-69
2022/07/17 10:32:30;;;;;;;3.10;0.60;;;18.70;99.90;;;;;;5065858;28;20037;-68
2022/07/17 10:35:05;;;;;;;1.63;0.63;;;18.70;99.90;;;;;;5068252;28;20052;-73
2022/07/17 10:37:37;;;;;;;3.05;0.75;;;18.80;99.90;;;;;;5065785;28;20048;-70
2022/07/17 10:40:24;;;;;;;2.47;0.60;;;18.90;99.90;;;;;;5065282;28;20131;-69
2022/07/17 10:42:49;;;;;;;1.98;0.70;;;18.90;99.90;;;;;;5066083;28;20117;-69
2022/07/17 10:45:33;;;;;;;2.20;0.60;;;19.00;99.90;;;;;;5067201;28;20496;-72
2022/07/17 10:48:08;;;;;;;3.03;0.80;;;19.00;99.90;;;;;;5066457;28;20052;-70
2022/07/17 10:50:38;;;;;;;1.60;0.60;;;19.00;99.90;;;;;;5068231;28;20453;-69
2022/07/17 10:53:07;;;;;;;3.00;0.60;;;19.10;99.90;;;;;;5067613;28;20047;-69
2022/07/17 10:55:35;;;;;;;3.75;0.80;;;19.10;99.90;;;;;;5065841;28;20549;-69
2022/07/17 10:58:00;;;;;;;0.90;0.50;;;19.20;99.90;;;;;;5069556;28;20401;-70
2022/07/17 11:00:26;;;;;;;2.47;0.70;;;19.30;99.90;;;;;;5067085;28;20063;-69
2022/07/17 11:02:52;;;;;;;1.30;0.60;;;19.30;99.90;;;;;;5068279;28;20047;-67
2022/07/17 11:05:19;;;;;;;1.48;0.60;;;19.40;99.90;;;;;;5068381;28;20496;-70
2022/07/17 11:07:57;;;;;;;3.40;0.80;;;19.50;99.90;;;;;;5066937;28;20052;-69
2022/07/17 11:10:25;;;;;;;1.25;0.50;;;19.60;99.90;;;;;;5068362;28;20392;-73
2022/07/17 11:12:53;;;;;;;2.80;0.70;;;19.60;99.90;;;;;;5067764;28;20044;-68
2022/07/17 11:15:18;;;;;;;1.38;0.60;;;19.70;99.90;;;;;;5067947;28;20571;-69
2022/07/17 11:17:48;;;;;;;4.60;0.80;;;19.70;99.90;;;;;;5063998;28;20059;-72
2022/07/17 11:20:15;;;;;;;1.25;0.80;;;19.80;99.90;;;;;;5067269;28;20197;-70
2022/07/17 11:22:42;;;;;;;2.25;0.60;;;19.80;99.90;;;;;;5065828;28;20534;-69
2022/07/17 11:25:09;;;;;;;1.52;0.63;;;19.90;99.90;;;;;;5067538;28;20071;-70
2022/07/17 11:27:36;;;;;;;2.28;0.70;;;20.00;99.90;;;;;;5067294;28;20122;-69
2022/07/17 11:30:04;;;;;;;1.90;0.85;;;20.00;99.90;;;;;;5067804;28;20048;-67
2022/07/17 11:32:34;;;;;;;2.50;0.70;;;20.10;99.90;;;;;;5067767;28;20052;-68
2022/07/17 11:35:00;;;;;;;1.48;0.70;;;20.10;99.90;;;;;;5066990;28;20086;-67
2022/07/17 11:37:30;;;;;;;1.38;0.60;;;20.20;99.90;;;;;;5067950;28;20523;-68
2022/07/17 11:39:57;;;;;;;3.63;0.68;;;20.20;99.90;;;;;;5065341;28;20522;-73
2022/07/17 11:42:23;;;;;;;5.97;0.77;;;20.30;99.90;;;;;;5066185;28;20045;-71
2022/07/17 11:44:51;;;;;;;1.77;0.60;;;20.30;99.90;;;;;;5068957;28;20233;-68
2022/07/17 11:47:21;;;;;;;1.42;0.70;;;20.30;99.90;;;;;;5067000;28;20129;-69
2022/07/17 11:49:47;;;;;;;1.90;0.70;;;20.30;99.90;;;;;;5066166;28;20070;-69
2022/07/17 11:52:20;;;;;;;3.70;0.63;;;20.40;99.90;;;;;;5067969;28;20544;-69
2022/07/17 11:54:50;;;;;;;2.10;0.63;;;20.50;99.90;;;;;;5065988;28;20127;-69
2022/07/17 11:57:18;;;;;;;2.40;0.80;;;20.50;99.90;;;;;;5067546;28;20484;-70
2022/07/17 11:59:45;;;;;;;2.15;0.70;;;20.60;99.90;;;;;;5067721;28;20481;-69
2022/07/17 12:02:17;;;;;;;2.47;0.75;;;20.60;99.90;;;;;;5069290;28;20037;-69
2022/07/17 12:04:50;;;;;;;;;;;20.60;99.90;;;;;;5068654;28;20078;-73
2022/07/17 12:07:17;;;;;;;2.97;0.75;;;20.50;99.90;;;;;;5068982;28;19990;-69
2022/07/17 12:09:43;;;;;;;1.75;0.70;;;20.50;99.90;;;;;;5069705;28;20488;-70
2022/07/17 12:12:23;;;;;;;1.80;0.73;;;20.60;99.90;;;;;;5066771;28;20055;-69
2022/07/17 12:14:57;;;;;;;1.67;0.70;;;20.50;99.90;;;;;;5067805;28;20106;-69
2022/07/17 12:17:23;;;;;;;3.38;0.70;;;20.60;99.90;;;;;;5067518;28;20143;-71
2022/07/17 12:19:53;;;;;;;3.08;0.70;;;20.60;99.90;;;;;;5068219;28;20040;-69
2022/07/17 12:22:19;;;;;;;4.20;0.80;;;20.70;99.90;;;;;;5069484;28;20048;-70
2022/07/17 12:24:46;;;;;;;1.30;0.70;;;20.70;99.90;;;;;;5069468;28;20079;-70
2022/07/17 12:27:16;;;;;;;1.88;0.70;;;20.80;99.90;;;;;;5067210;28;20039;-69
2022/07/17 12:29:44;;;;;;;2.85;0.80;;;20.90;99.90;;;;;;5071190;28;20044;-69
2022/07/17 12:32:17;;;;;;;2.55;0.80;;;20.90;99.90;;;;;;5069605;28;20044;-70
2022/07/17 12:34:48;;;;;;;1.65;0.82;;;20.90;99.90;;;;;;5067985;28;20064;-70
2022/07/17 12:37:19;;;;;;;2.55;0.75;;;21.00;99.90;;;;;;5072498;28;20090;-77
2022/07/17 12:39:46;;;;;;;2.90;0.95;;;21.10;99.90;;;;;;5070421;28;20041;-73
2022/07/17 12:42:16;;;;;;;1.17;0.70;;;21.10;99.90;;;;;;5067230;28;21056;-72
2022/07/17 12:44:43;;;;;;;1.30;0.70;;;21.10;99.90;;;;;;5070609;28;20056;-69
2022/07/17 12:47:09;;;;;;;1.77;0.82;;;21.20;99.90;;;;;;5071314;28;20047;-69